Time;durP1;ratioP1;P1;durP2;ratioP2;P2;SDS_P1;SDS_P2;PMS_P1;PMS_P2;Temp;Humidity;BMP_temperature;BMP_pressure;BME280_temperature;BME280_humidity;BME280_pressure;Samples;Min_cycle;Max_cycle;Signal;HPM_P1;HPM_P2
2024/03/22 00:05:43;;;;;;;;;;;9.50;99.90;;;;;;21173853;28;20405;-78
2024/03/22 00:15:45;;;;;;;;;;;9.50;99.90;;;;;;21189401;28;19922;-78
2024/03/22 00:25:45;;;;;;;;;;;9.40;99.90;;;;;;21174238;28;19923;-78
2024/03/22 00:35:46;;;;;;;;;;;9.30;99.90;;;;;;21179798;28;19915;-78
2024/03/22 00:45:47;;;;;;;;;;;9.00;99.90;;;;;;21175014;28;20362;-78
2024/03/22 00:55:51;;;;;;;;;;;8.80;99.90;;;;;;21153563;28;19923;-78
2024/03/22 01:05:51;;;;;;;;;;;8.20;99.90;;;;;;21156388;28;19997;-78
2024/03/22 01:15:52;;;;;;;;;;;7.80;99.90;;;;;;21165047;28;19916;-78
2024/03/22 01:25:53;;;;;;;;;;;7.70;99.90;;;;;;21145733;28;19915;-78
2024/03/22 01:35:53;;;;;;;;;;;8.20;99.90;;;;;;21136651;28;20455;-78
2024/03/22 01:45:54;;;;;;;;;;;8.00;99.90;;;;;;21158979;28;19920;-78
2024/03/22 01:55:55;;;;;;;;;;;8.20;99.90;;;;;;21131640;28;19915;-78
2024/03/22 02:05:55;;;;;;;;;;;8.00;99.90;;;;;;21175907;28;19966;-78
2024/03/22 02:15:57;;;;;;;;;;;7.90;99.90;;;;;;21139157;28;20317;-78
2024/03/22 02:25:58;;;;;;;;;;;7.40;99.90;;;;;;21151151;28;19920;-78
2024/03/22 02:35:59;;;;;;;;;;;7.40;99.90;;;;;;21157018;28;19973;-78
2024/03/22 02:45:59;;;;;;;;;;;7.30;99.90;;;;;;21168899;28;19912;-78
2024/03/22 02:56:01;;;;;;;;;;;7.10;99.90;;;;;;21167944;28;19916;-78
2024/03/22 03:06:01;;;;;;;;;;;7.10;99.90;;;;;;21175185;28;19911;-78
2024/03/22 03:16:02;;;;;;;;;;;6.80;99.90;;;;;;21162736;28;20386;-78
2024/03/22 03:26:03;;;;;;;;;;;6.70;99.90;;;;;;21176396;28;19923;-78
2024/03/22 03:36:04;;;;;;;;;;;6.80;99.90;;;;;;21189002;28;19916;-78
2024/03/22 03:46:04;;;;;;;;;;;6.90;99.90;;;;;;21159381;28;19915;-78
2024/03/22 03:56:05;;;;;;;;;;;7.00;99.90;;;;;;21177278;28;19922;-78
2024/03/22 04:06:06;;;;;;;;;;;7.50;99.90;;;;;;21155492;28;19912;-78
2024/03/22 04:16:06;;;;;;;;;;;7.70;99.90;;;;;;21175203;28;20056;-77
2024/03/22 04:26:08;;;;;;;;;;;7.70;99.90;;;;;;21149655;28;19939;-77
2024/03/22 04:36:11;;;;;;;;;;;7.70;99.90;;;;;;21147561;28;19927;-78
2024/03/22 04:46:12;;;;;;;;;;;8.00;99.90;;;;;;21145849;28;19912;-78
2024/03/22 04:56:13;;;;;;;;;;;8.00;99.90;;;;;;21141597;28;19962;-77
2024/03/22 05:06:13;;;;;;;;;;;8.00;99.90;;;;;;21133032;28;19912;-78
2024/03/22 05:16:14;;;;;;;;;;;8.00;99.90;;;;;;21145173;28;20007;-78
2024/03/22 05:26:15;;;;;;;;;;;8.00;99.90;;;;;;21162158;28;19916;-78
2024/03/22 05:36:15;;;;;;;;;;;8.10;99.90;;;;;;21146589;28;19969;-77
2024/03/22 05:46:16;;;;;;;;;;;8.10;99.90;;;;;;21171205;28;19916;-78
2024/03/22 05:56:16;;;;;;;;;;;7.90;99.90;;;;;;21141065;28;20369;-79
2024/03/22 06:06:17;;;;;;;;;;;8.00;99.90;;;;;;21166292;28;19946;-78
2024/03/22 06:16:18;;;;;;;;;;;8.00;99.90;;;;;;21160959;28;19920;-77
2024/03/22 06:26:19;;;;;;;;;;;8.10;99.90;;;;;;21144339;28;19923;-78
2024/03/22 06:36:19;;;;;;;;;;;8.30;99.90;;;;;;21138763;28;19915;-78
2024/03/22 06:46:20;;;;;;;;;;;8.40;99.90;;;;;;21146316;28;19912;-79
2024/03/22 06:56:21;;;;;;;;;;;8.50;99.90;;;;;;21135519;28;20340;-79
2024/03/22 07:06:22;;;;;;;;;;;8.50;99.90;;;;;;21163445;28;20317;-78
2024/03/22 07:16:22;;;;;;;;;;;8.70;99.90;;;;;;21142577;28;19923;-79
2024/03/22 07:26:23;;;;;;;;;;;9.40;99.90;;;;;;21130780;28;19955;-77
2024/03/22 07:36:23;;;;;;;;;;;9.90;99.90;;;;;;21136089;28;19916;-78
2024/03/22 07:46:24;;;;;;;;;;;10.00;99.90;;;;;;21178494;28;19912;-78
2024/03/22 07:56:25;;;;;;;;;;;10.40;99.90;;;;;;21172212;28;19954;-76
2024/03/22 08:06:25;;;;;;;;;;;10.60;99.90;;;;;;21173256;28;19919;-77
2024/03/22 08:16:27;;;;;;;;;;;11.10;99.90;;;;;;21173651;28;19927;-76
2024/03/22 08:26:28;;;;;;;;;;;12.70;99.90;;;;;;21166794;28;19915;-76
2024/03/22 08:36:28;;;;;;;;;;;14.20;99.90;;;;;;21164513;28;19926;-75
2024/03/22 08:46:29;;;;;;;;;;;15.30;99.90;;;;;;21163588;28;20347;-75
2024/03/22 08:56:29;;;;;;;;;;;16.70;99.90;;;;;;21162666;28;19931;-75
2024/03/22 09:06:31;;;;;;;;;;;17.10;99.90;;;;;;21161104;28;19943;-76
2024/03/22 09:16:32;;;;;;;;;;;18.40;99.90;;;;;;21161000;28;19922;-76
2024/03/22 09:26:33;;;;;;;;;;;19.10;99.90;;;;;;21159723;28;20293;-76
2024/03/22 09:36:35;;;;;;;;;;;19.50;99.90;;;;;;21115370;28;19962;-76
2024/03/22 09:46:37;;;;;;;;;;;19.70;99.90;;;;;;21074669;28;19916;-76
2024/03/22 09:56:38;;;;;;;;;;;19.20;99.90;;;;;;21084563;28;20267;-78
2024/03/22 10:06:39;;;;;;;;;;;19.10;99.90;;;;;;21124880;28;19924;-78
2024/03/22 10:16:39;;;;;;;;;;;18.10;99.90;;;;;;21120243;28;19916;-78
2024/03/22 10:26:40;;;;;;;;;;;19.10;99.90;;;;;;21083494;28;19947;-78
2024/03/22 10:36:41;;;;;;;;;;;18.40;99.90;;;;;;21092206;28;19916;-78
2024/03/22 10:46:43;;;;;;;;;;;18.00;99.90;;;;;;21158124;28;19915;-78
2024/03/22 10:56:46;;;;;;;;;;;19.10;99.90;;;;;;21177542;28;20378;-77
2024/03/22 11:06:50;;;;;;;;;;;19.60;99.90;;;;;;21175809;28;20323;-78
2024/03/22 11:16:50;;;;;;;;;;;19.60;99.90;;;;;;21155108;28;19916;-78
2024/03/22 11:26:51;;;;;;;;;;;19.00;99.90;;;;;;21175374;28;19916;-77
2024/03/22 11:36:53;;;;;;;;;;;18.90;99.90;;;;;;21174644;28;19916;-79
2024/03/22 11:46:54;;;;;;;;;;;19.00;99.90;;;;;;21156518;28;19947;-80
2024/03/22 11:56:56;;;;;;;;;;;19.60;99.90;;;;;;21158689;28;19923;-80
2024/03/22 12:06:57;;;;;;;;;;;19.10;99.90;;;;;;21174339;28;19957;-80
2024/03/22 12:16:58;;;;;;;;;;;19.00;99.90;;;;;;21155751;28;20336;-79
2024/03/22 12:26:59;;;;;;;;;;;21.10;99.90;;;;;;21142418;28;19920;-80
2024/03/22 12:37:00;;;;;;;;;;;22.00;99.90;;;;;;21154261;28;20310;-80
2024/03/22 12:47:00;;;;;;;;;;;22.60;99.90;;;;;;21182305;28;19920;-80
2024/03/22 12:57:01;;;;;;;;;;;21.70;99.60;;;;;;21140952;28;19922;-80
2024/03/22 13:07:02;;;;;;;;;;;21.60;99.10;;;;;;21162673;28;19912;-79
2024/03/22 13:17:02;;;;;;;;;;;21.00;99.20;;;;;;21137867;28;19915;-79
2024/03/22 13:27:03;;;;;;;;;;;22.20;96.10;;;;;;21110398;28;19975;-80
2024/03/22 13:37:04;;;;;;;;;;;22.10;93.00;;;;;;21166429;28;20006;-78
2024/03/22 13:47:04;;;;;;;;;;;22.60;95.60;;;;;;21145670;28;19919;-80
2024/03/22 13:57:05;;;;;;;;;;;22.60;94.10;;;;;;21156866;28;20328;-80
2024/03/22 14:07:07;;;;;;;;;;;22.70;93.40;;;;;;21144016;28;19912;-78
2024/03/22 14:17:08;;;;;;;;;;;22.90;93.50;;;;;;21095062;28;19923;-79
2024/03/22 14:27:08;;;;;;;;;;;21.60;92.70;;;;;;21123573;28;19920;-78
2024/03/22 14:37:09;;;;;;;;;;;22.20;93.10;;;;;;21161277;28;19935;-78
2024/03/22 14:47:10;;;;;;;;;;;22.00;95.00;;;;;;21167607;28;20009;-79
2024/03/22 14:57:11;;;;;;;;;;;22.20;95.90;;;;;;21156835;28;19961;-78
2024/03/22 15:07:11;;;;;;;;;;;21.80;93.20;;;;;;21141019;28;21250;-79
2024/03/22 15:17:15;;;;;;;;;;;22.20;94.70;;;;;;21136278;28;19916;-78
2024/03/22 15:27:16;;;;;;;;;;;22.60;93.00;;;;;;21145183;27;19923;-78
2024/03/22 15:37:17;;;;;;;;;;;21.30;92.10;;;;;;21160498;27;19916;-78
2024/03/22 15:47:17;;;;;;;;;;;20.80;95.10;;;;;;21113131;27;20446;-79
2024/03/22 15:57:18;;;;;;;;;;;20.60;94.10;;;;;;21111942;27;19922;-79
2024/03/22 16:07:19;;;;;;;;;;;21.80;94.90;;;;;;21099182;27;19912;-78
2024/03/22 16:17:19;;;;;;;;;;;21.20;95.30;;;;;;21119582;27;20408;-78
2024/03/22 16:27:23;;;;;;;;;;;20.50;96.10;;;;;;21100990;27;19916;-78
2024/03/22 16:37:24;;;;;;;;;;;20.10;95.20;;;;;;21160288;27;19916;-79
2024/03/22 16:47:25;;;;;;;;;;;19.80;97.70;;;;;;21132607;27;19947;-79
2024/03/22 16:57:26;;;;;;;;;;;19.60;99.20;;;;;;21102006;27;19920;-78
2024/03/22 17:07:28;;;;;;;;;;;19.50;99.90;;;;;;21111200;27;19931;-78
2024/03/22 17:17:29;;;;;;;;;;;19.30;99.90;;;;;;21116527;27;19916;-78
2024/03/22 17:27:30;;;;;;;;;;;18.80;99.90;;;;;;21099210;27;19926;-77
2024/03/22 17:37:30;;;;;;;;;;;18.30;99.90;;;;;;21095276;27;19938;-81
2024/03/22 17:47:31;;;;;;;;;;;17.90;99.90;;;;;;21146752;27;19919;-83
2024/03/22 17:57:32;;;;;;;;;;;17.50;99.90;;;;;;21167125;27;20006;-81
2024/03/22 18:07:33;;;;;;;;;;;16.60;99.90;;;;;;21164753;27;19930;-84
2024/03/22 18:17:33;;;;;;;;;;;15.50;99.90;;;;;;21170879;28;19916;-83
2024/03/22 18:27:36;;;;;;;;;;;14.60;99.90;;;;;;21141054;22;21362;-79
2024/03/22 18:37:37;;;;;;;;;;;14.10;99.90;;;;;;21061885;28;19920;-76
2024/03/22 18:47:37;;;;;;;;;;;13.60;99.90;;;;;;21049345;28;19966;-77
2024/03/22 18:57:38;;;;;;;;;;;13.40;99.90;;;;;;21069465;28;19916;-78
2024/03/22 19:07:39;;;;;;;;;;;13.40;99.90;;;;;;21096614;28;19981;-77
2024/03/22 19:17:41;;;;;;;;;;;13.10;99.90;;;;;;21036277;28;19917;-78
2024/03/22 19:27:41;;;;;;;;;;;12.20;99.90;;;;;;21022848;28;19995;-78
2024/03/22 19:37:42;;;;;;;;;;;12.00;99.90;;;;;;21057965;28;20418;-78
2024/03/22 19:47:43;;;;;;;;;;;11.80;99.90;;;;;;21051622;28;19916;-79
2024/03/22 19:57:43;;;;;;;;;;;11.80;99.90;;;;;;21017310;28;19923;-79
2024/03/22 20:07:44;;;;;;;;;;;11.90;99.90;;;;;;21067021;28;19912;-77
2024/03/22 20:17:45;;;;;;;;;;;11.70;99.90;;;;;;21052868;28;19916;-78
2024/03/22 20:27:45;;;;;;;;;;;11.10;99.90;;;;;;21070243;28;19972;-78
2024/03/22 20:37:47;;;;;;;;;;;11.10;99.90;;;;;;21025635;28;19916;-79
2024/03/22 20:47:48;;;;;;;;;;;11.00;99.90;;;;;;21045401;28;20374;-79
2024/03/22 20:57:50;;;;;;;;;;;11.40;99.90;;;;;;21062794;28;19943;-78
2024/03/22 21:07:51;;;;;;;;;;;10.40;99.90;;;;;;21052850;28;19913;-77
2024/03/22 21:17:53;;;;;;;;;;;10.00;99.90;;;;;;21027318;28;19970;-78
2024/03/22 21:27:57;;;;;;;;;;;10.10;99.90;;;;;;21043859;28;19924;-78
2024/03/22 21:37:58;;;;;;;;;;;10.10;99.90;;;;;;21023560;28;19916;-77
2024/03/22 21:48:04;;;;;;;;;;;10.00;99.90;;;;;;21025968;28;20282;-77
2024/03/22 21:58:05;;;;;;;;;;;9.50;99.90;;;;;;21024342;28;19970;-76
2024/03/22 22:08:06;;;;;;;;;;;8.90;99.90;;;;;;21035035;28;19920;-79
2024/03/22 22:18:07;;;;;;;;;;;9.20;99.90;;;;;;21026716;28;19923;-78
2024/03/22 22:28:08;;;;;;;;;;;8.70;99.90;;;;;;21014685;28;19923;-78
2024/03/22 22:38:09;;;;;;;;;;;8.90;99.90;;;;;;21026770;28;20294;-77
2024/03/22 22:48:10;;;;;;;;;;;8.70;99.90;;;;;;21026903;28;19919;-78
2024/03/22 22:58:12;;;;;;;;;;;9.00;99.90;;;;;;21013151;28;19923;-78
2024/03/22 23:08:13;;;;;;;;;;;8.90;99.90;;;;;;21005625;28;19917;-78
2024/03/22 23:18:14;;;;;;;;;;;8.40;99.90;;;;;;21031767;28;20403;-78
2024/03/22 23:28:15;;;;;;;;;;;8.40;99.90;;;;;;21028499;28;19916;-78
2024/03/22 23:38:16;;;;;;;;;;;8.00;99.90;;;;;;21019279;28;19916;-78
2024/03/22 23:48:17;;;;;;;;;;;7.80;99.90;;;;;;21020824;28;19912;-78
2024/03/22 23:58:18;;;;;;;;;;;7.50;99.90;;;;;;21032981;28;19947;-78
